Time;durP1;ratioP1;P1;durP2;ratioP2;P2;SDS_P1;SDS_P2;PMS_P1;PMS_P2;Temp;Humidity;BMP_temperature;BMP_pressure;BME280_temperature;BME280_humidity;BME280_pressure;Samples;Min_cycle;Max_cycle;Signal;HPM_P1;HPM_P2
2022/05/15 00:01:28;;;;;;;5.72;3.33;;;;;;;;;;5075533;28;20207;-88
2022/05/15 00:03:54;;;;;;;4.47;3.13;;;;;;;;;;5077537;28;20119;-87
2022/05/15 00:06:19;;;;;;;5.28;3.08;;;;;;;;;;5090511;28;20048;-88
2022/05/15 00:08:45;;;;;;;5.78;2.80;;;;;;;;;;5062959;28;20024;-87
2022/05/15 00:11:17;;;;;;;6.28;3.30;;;;;;;;;;5081243;28;20446;-87
2022/05/15 00:13:43;;;;;;;5.65;3.33;;;;;;;;;;5062881;28;20024;-87
2022/05/15 00:16:09;;;;;;;5.75;3.45;;;;;;;;;;5070305;28;20025;-87
2022/05/15 00:18:34;;;;;;;8.65;3.50;;;;;;;;;;5080707;28;20205;-86
2022/05/15 00:21:00;;;;;;;8.68;3.50;;;;;;;;;;5086098;28;20112;-86
2022/05/15 00:23:26;;;;;;;6.13;3.60;;;;;;;;;;5079841;28;20024;-86
2022/05/15 00:25:52;;;;;;;6.82;3.38;;;;;;;;;;5081567;28;20032;-85
2022/05/15 00:28:17;;;;;;;7.85;3.90;;;;;;;;;;5080445;28;20025;-86
2022/05/15 00:30:43;;;;;;;5.82;3.42;;;;;;;;;;5082170;28;20016;-86
2022/05/15 00:33:09;;;;;;;5.28;3.50;;;;;;;;;;5082497;28;20024;-86
2022/05/15 00:35:37;;;;;;;5.97;3.58;;;;;;;;;;5085140;28;20032;-88
2022/05/15 00:38:03;;;;;;;11.70;3.65;;;;;;;;;;5109129;28;20077;-85
2022/05/15 00:40:29;;;;;;;4.88;3.50;;;;;;;;;;5101387;28;20043;-85
2022/05/15 00:42:55;;;;;;;6.00;3.40;;;;;;;;;;5064855;28;20532;-85
2022/05/15 00:45:23;;;;;;;7.47;3.58;;;;;;;;;;5076002;28;20062;-85
2022/05/15 00:47:49;;;;;;;4.93;3.53;;;;;;;;;;5082544;28;20029;-86
2022/05/15 00:50:21;;;;;;;9.40;3.55;;;;;;;;;;5061957;28;20053;-86
2022/05/15 00:52:48;;;;;;;;;;;;;;;;;;5085001;28;20025;-85
2022/05/15 00:55:32;;;;;;;7.45;3.63;;;;;;;;;;5060998;28;19908;-86
2022/05/15 00:58:03;;;;;;;7.10;4.43;;;;;;;;;;5078368;28;20101;-86
2022/05/15 01:00:32;;;;;;;13.73;5.65;;;;;;;;;;5079464;28;20020;-86
2022/05/15 01:03:11;;;;;;;11.35;5.88;;;;;;;;;;5099783;28;20027;-86
2022/05/15 01:05:41;;;;;;;10.68;6.20;;;;;;;;;;5087977;28;20024;-86
2022/05/15 01:08:07;;;;;;;9.25;5.72;;;;;;;;;;5079236;28;20024;-86
2022/05/15 01:10:35;;;;;;;12.63;6.32;;;;;;;;;;5080403;28;20089;-86
2022/05/15 01:13:00;;;;;;;10.35;6.20;;;;;;;;;;5090018;28;20028;-85
2022/05/15 01:15:27;;;;;;;9.48;5.07;;;;;;;;;;5060347;28;20024;-86
2022/05/15 01:17:53;;;;;;;6.80;4.47;;;;;;;;;;5078293;28;20025;-86
2022/05/15 01:20:23;;;;;;;10.50;5.60;;;;;;;;;;5079411;28;20047;-86
2022/05/15 01:22:48;;;;;;;9.98;5.70;;;;;;;;;;5083889;28;20073;-85
2022/05/15 01:25:26;;;;;;;11.85;5.32;;;;;;;;;;5083151;28;20032;-86
2022/05/15 01:28:07;;;;;;;12.55;5.30;;;;;;;;;;5079599;28;20020;-84
2022/05/15 01:30:35;;;;;;;7.20;4.03;;;;;;;;;;5079329;28;20385;-85
2022/05/15 01:33:01;;;;;;;8.10;5.00;;;;;;;;;;5061687;28;20088;-85
2022/05/15 01:35:27;;;;;;;7.93;4.30;;;;;;;;;;5088437;28;20063;-87
2022/05/15 01:37:52;;;;;;;7.13;4.03;;;;;;;;;;5062011;28;20059;-87
2022/05/15 01:40:17;;;;;;;6.32;3.83;;;;;;;;;;5079900;28;20032;-87
2022/05/15 01:42:43;;;;;;;9.13;3.97;;;;;;;;;;5070424;28;20027;-86
2022/05/15 01:45:10;;;;;;;6.03;3.45;;;;;;;;;;5097162;28;20055;-87
2022/05/15 01:47:35;;;;;;;6.53;3.67;;;;;;;;;;5081426;28;20024;-87
2022/05/15 01:50:01;;;;;;;6.35;3.38;;;;;;;;;;5099287;28;20024;-86
2022/05/15 01:52:27;;;;;;;4.60;3.25;;;;;;;;;;5096027;28;20020;-85
2022/05/15 01:54:52;;;;;;;6.63;3.50;;;;;;;;;;5092566;28;20032;-86
2022/05/15 01:57:17;;;;;;;9.32;3.90;;;;;;;;;;5099218;28;20028;-86
2022/05/15 01:59:43;;;;;;;5.93;3.60;;;;;;;;;;5099715;28;20046;-85
2022/05/15 02:02:08;;;;;;;5.95;3.55;;;;;;;;;;5100239;28;20027;-86
2022/05/15 02:04:34;;;;;;;5.68;3.63;;;;;;;;;;5098053;28;21294;-86
2022/05/15 02:06:59;;;;;;;6.93;3.88;;;;;;;;;;5093537;28;20023;-86
2022/05/15 02:09:25;;;;;;;8.35;4.00;;;;;;;;;;5082146;28;20024;-86
2022/05/15 02:11:50;;;;;;;5.28;3.47;;;;;;;;;;5088658;28;20029;-86
2022/05/15 02:14:16;;;;;;;4.90;3.50;;;;;;;;;;5087730;28;20050;-86
2022/05/15 02:16:41;;;;;;;11.15;4.32;;;;;;;;;;5080347;28;20388;-87
2022/05/15 02:19:07;;;;;;;8.43;3.97;;;;;;;;;;5081209;28;20029;-88
2022/05/15 02:21:32;;;;;;;6.90;3.83;;;;;;;;;;5080107;28;20025;-87
2022/05/15 02:23:58;;;;;;;5.82;3.88;;;;;;;;;;5080675;28;20021;-87
2022/05/15 02:26:24;;;;;;;8.50;4.68;;;;;;;;;;5061843;28;20020;-87
2022/05/15 02:28:50;;;;;;;9.60;4.97;;;;;;;;;;5079433;28;20028;-87
2022/05/15 02:31:16;;;;;;;8.40;5.07;;;;;;;;;;5088540;28;20059;-87
2022/05/15 02:33:42;;;;;;;10.07;4.80;;;;;;;;;;5062072;28;20028;-87
2022/05/15 02:36:07;;;;;;;11.93;5.38;;;;;;;;;;5070456;28;20115;-87
2022/05/15 02:38:33;;;;;;;12.20;5.40;;;;;;;;;;5080119;28;20074;-88
2022/05/15 02:40:59;;;;;;;9.18;4.82;;;;;;;;;;5081983;28;20021;-87
2022/05/15 02:43:24;;;;;;;9.15;4.95;;;;;;;;;;5067602;28;20131;-87
2022/05/15 02:45:50;;;;;;;7.80;4.50;;;;;;;;;;5088643;28;20039;-86
2022/05/15 02:51:10;;;;;;;9.13;3.95;;;;;;;;;;4994229;28;20102;-88
2022/05/15 02:53:38;;;;;;;7.80;4.60;;;;;;;;;;5059218;28;20063;-88
2022/05/15 02:56:08;;;;;;;6.03;3.58;;;;;;;;;;5063006;28;20023;-87
2022/05/15 02:58:34;;;;;;;6.03;3.67;;;;;;;;;;5081625;28;20028;-87
2022/05/15 03:00:59;;;;;;;6.72;3.88;;;;;;;;;;5082788;28;20024;-87
2022/05/15 03:03:26;;;;;;;7.20;4.20;;;;;;;;;;5081625;28;20016;-87
2022/05/15 03:05:52;;;;;;;6.43;3.70;;;;;;;;;;5078158;28;20020;-86
2022/05/15 03:08:18;;;;;;;7.28;3.78;;;;;;;;;;5097731;28;20084;-87
2022/05/15 03:10:43;;;;;;;9.82;4.05;;;;;;;;;;5098310;28;20039;-87
2022/05/15 03:13:09;;;;;;;6.80;4.05;;;;;;;;;;5087369;28;20051;-86
2022/05/15 03:15:34;;;;;;;6.30;3.35;;;;;;;;;;5097064;28;20032;-87
2022/05/15 03:17:59;;;;;;;5.50;3.63;;;;;;;;;;5078948;28;20469;-85
2022/05/15 03:20:27;;;;;;;7.40;3.72;;;;;;;;;;5097266;28;20045;-87
2022/05/15 03:22:54;;;;;;;6.85;4.10;;;;;;;;;;5081668;28;20052;-86
2022/05/15 03:25:19;;;;;;;6.80;3.47;;;;;;;;;;5094183;28;20043;-86
2022/05/15 03:27:45;;;;;;;9.75;3.40;;;;;;;;;;5079472;28;20031;-87
2022/05/15 03:30:11;;;;;;;6.65;4.00;;;;;;;;;;5098639;28;20035;-86
2022/05/15 03:32:37;;;;;;;7.28;3.60;;;;;;;;;;5097874;28;20454;-86
2022/05/15 03:35:03;;;;;;;6.18;3.83;;;;;;;;;;5083943;28;20025;-85
2022/05/15 03:37:29;;;;;;;5.28;3.50;;;;;;;;;;5095944;28;20031;-85
2022/05/15 03:39:54;;;;;;;9.10;3.70;;;;;;;;;;5083736;28;20024;-85
2022/05/15 03:42:20;;;;;;;8.43;4.15;;;;;;;;;;5084536;28;20025;-87
2022/05/15 03:44:45;;;;;;;5.72;3.75;;;;;;;;;;5080869;28;20044;-86
2022/05/15 03:47:11;;;;;;;7.30;3.72;;;;;;;;;;5082319;28;20098;-85
2022/05/15 03:49:36;;;;;;;7.47;3.80;;;;;;;;;;5084642;28;20029;-86
2022/05/15 03:52:03;;;;;;;6.68;3.85;;;;;;;;;;5090252;28;20058;-84
2022/05/15 03:54:29;;;;;;;5.88;3.83;;;;;;;;;;5095260;28;20032;-84
2022/05/15 03:56:54;;;;;;;7.80;4.00;;;;;;;;;;5084256;28;20027;-84
2022/05/15 03:59:22;;;;;;;9.48;3.42;;;;;;;;;;5083005;28;20033;-85
2022/05/15 04:01:48;;;;;;;6.25;3.53;;;;;;;;;;5083433;28;20107;-86
2022/05/15 04:04:14;;;;;;;12.35;3.70;;;;;;;;;;5082974;28;20048;-86
2022/05/15 04:06:39;;;;;;;9.38;3.95;;;;;;;;;;5089541;28;20119;-85
2022/05/15 04:09:05;;;;;;;10.50;3.75;;;;;;;;;;5064497;28;20024;-85
2022/05/15 04:11:30;;;;;;;6.53;4.05;;;;;;;;;;5065465;28;20078;-84
2022/05/15 04:13:56;;;;;;;9.02;3.63;;;;;;;;;;5076712;28;20038;-85
2022/05/15 04:16:22;;;;;;;4.60;3.42;;;;;;;;;;5084013;28;20092;-84
2022/05/15 04:18:47;;;;;;;6.82;3.90;;;;;;;;;;5102123;28;20049;-87
2022/05/15 04:21:13;;;;;;;6.45;3.92;;;;;;;;;;5084624;28;20543;-86
2022/05/15 04:23:38;;;;;;;6.90;3.25;;;;;;;;;;5094222;28;20517;-86
2022/05/15 04:26:04;;;;;;;6.32;3.50;;;;;;;;;;5083944;28;20029;-86
2022/05/15 04:28:29;;;;;;;6.97;3.60;;;;;;;;;;5064452;28;20119;-86
2022/05/15 04:30:55;;;;;;;7.53;3.40;;;;;;;;;;5082044;28;20021;-86
2022/05/15 04:33:20;;;;;;;7.40;4.05;;;;;;;;;;5084258;28;20024;-87
2022/05/15 04:35:46;;;;;;;5.25;3.47;;;;;;;;;;5073836;28;20074;-85
2022/05/15 04:38:11;;;;;;;6.70;3.60;;;;;;;;;;5064599;28;20079;-86
2022/05/15 04:40:37;;;;;;;4.80;3.67;;;;;;;;;;5083108;28;20030;-86
2022/05/15 04:43:03;;;;;;;4.05;3.25;;;;;;;;;;5066441;28;20024;-85
2022/05/15 04:45:28;;;;;;;5.35;3.72;;;;;;;;;;5084398;28;20081;-86
2022/05/15 04:47:54;;;;;;;6.90;3.67;;;;;;;;;;5104740;28;20016;-87
2022/05/15 04:50:20;;;;;;;5.57;3.20;;;;;;;;;;5072047;28;20027;-87
2022/05/15 04:52:46;;;;;;;6.15;3.22;;;;;;;;;;5083971;28;20039;-87
2022/05/15 04:55:12;;;;;;;7.93;3.90;;;;;;;;;;5066324;28;20024;-87
2022/05/15 04:57:38;;;;;;;8.38;3.90;;;;;;;;;;5066981;28;20025;-87
2022/05/15 05:00:09;;;;;;;7.32;3.58;;;;;;;;;;5085964;28;20035;-86
2022/05/15 05:02:34;;;;;;;6.85;3.50;;;;;;;;;;5050276;28;20031;-86
2022/05/15 05:05:00;;;;;;;7.78;3.72;;;;;;;;;;5063689;28;20024;-86
2022/05/15 05:07:27;;;;;;;9.75;3.92;;;;;;;;;;5080700;28;20390;-87
2022/05/15 05:09:52;;;;;;;7.47;4.18;;;;;;;;;;5084503;28;20507;-86
2022/05/15 05:12:18;;;;;;;7.68;3.75;;;;;;;;;;5099173;28;20020;-86
2022/05/15 05:14:43;;;;;;;6.03;3.75;;;;;;;;;;5096033;28;20081;-87
2022/05/15 05:17:08;;;;;;;9.10;3.80;;;;;;;;;;5099062;28;20024;-87
2022/05/15 05:19:34;;;;;;;8.32;3.40;;;;;;;;;;5086338;28;20107;-86
2022/05/15 05:21:59;;;;;;;6.38;3.80;;;;;;;;;;5098012;28;20051;-86
2022/05/15 05:24:24;;;;;;;9.27;3.55;;;;;;;;;;5092657;28;20385;-87
2022/05/15 05:26:50;;;;;;;7.88;3.83;;;;;;;;;;5082935;28;20016;-87
2022/05/15 05:29:15;;;;;;;6.25;3.50;;;;;;;;;;5078869;28;20083;-87
2022/05/15 05:31:41;;;;;;;5.65;3.30;;;;;;;;;;5083452;28;20609;-87
2022/05/15 05:34:06;;;;;;;6.57;3.28;;;;;;;;;;5090672;28;20032;-88
2022/05/15 05:36:31;;;;;;;6.70;3.78;;;;;;;;;;5095307;28;20020;-86
2022/05/15 05:38:58;;;;;;;5.45;3.38;;;;;;;;;;5104358;28;20088;-87
2022/05/15 05:41:23;;;;;;;7.60;3.20;;;;;;;;;;5082320;28;20021;-86
2022/05/15 05:43:49;;;;;;;4.57;3.00;;;;;;;;;;5073995;28;20437;-86
2022/05/15 05:46:14;;;;;;;4.95;3.22;;;;;;;;;;5085749;28;20008;-87
2022/05/15 05:48:45;;;;;;;7.18;3.65;;;;;;;;;;5085980;28;20024;-87
2022/05/15 05:51:12;;;;;;;6.00;3.00;;;;;;;;;;5087040;28;20036;-88
2022/05/15 05:53:37;;;;;;;6.28;3.03;;;;;;;;;;5069666;28;20055;-85
2022/05/15 05:56:03;;;;;;;10.15;2.92;;;;;;;;;;5085237;28;20035;-86
2022/05/15 05:58:28;;;;;;;6.55;2.70;;;;;;;;;;5103838;28;20024;-85
2022/05/15 06:00:54;;;;;;;3.53;2.97;;;;;;;;;;5102932;28;20024;-86
2022/05/15 06:06:03;;;;;;;5.10;2.70;;;;;;;;;;5078042;28;20090;-84
2022/05/15 06:08:30;;;;;;;3.60;2.60;;;;;;;;;;5064317;28;20020;-84
2022/05/15 06:10:55;;;;;;;4.45;2.50;;;;;;;;;;5064647;28;20040;-86
2022/05/15 06:13:21;;;;;;;4.70;2.47;;;;;;;;;;5064441;28;20024;-87
2022/05/15 06:15:47;;;;;;;5.78;2.60;;;;;;;;;;5068295;28;20028;-86
2022/05/15 06:18:12;;;;;;;4.13;2.15;;;;;;;;;;5085915;28;20024;-85
2022/05/15 06:20:37;;;;;;;5.95;2.80;;;;;;;;;;5066359;28;20462;-84
2022/05/15 06:23:03;;;;;;;8.07;2.65;;;;;;;;;;5080830;28;20032;-85
2022/05/15 06:25:29;;;;;;;4.43;2.45;;;;;;;;;;5065009;28;20032;-86
2022/05/15 06:27:54;;;;;;;5.35;2.60;;;;;;;;;;5082222;28;20242;-85
2022/05/15 06:30:20;;;;;;;6.97;2.40;;;;;;;;;;5090289;28;20039;-86
2022/05/15 06:32:45;;;;;;;2.95;2.17;;;;;;;;;;5083924;28;20028;-86
2022/05/15 06:35:13;;;;;;;4.53;2.15;;;;;;;;;;5074307;28;20512;-85
2022/05/15 06:37:39;;;;;;;8.93;2.88;;;;;;;;;;5085659;28;20035;-85
2022/05/15 06:40:06;;;;;;;3.35;2.00;;;;;;;;;;5087348;28;20020;-87
2022/05/15 06:42:31;;;;;;;4.43;2.30;;;;;;;;;;5082528;28;20047;-86
2022/05/15 06:44:57;;;;;;;6.07;2.25;;;;;;;;;;5066298;28;20106;-86
2022/05/15 06:47:26;;;;;;;4.25;2.28;;;;;;;;;;5085044;28;20013;-87
2022/05/15 06:49:52;;;;;;;4.82;2.42;;;;;;;;;;5084496;28;20044;-87
2022/05/15 06:52:18;;;;;;;2.95;2.00;;;;;;;;;;5085781;28;20085;-85
2022/05/15 06:54:43;;;;;;;3.47;2.40;;;;;;;;;;5089456;28;20020;-87
2022/05/15 06:59:53;;;;;;;3.97;2.03;;;;;;;;;;5097591;28;20512;-85
2022/05/15 07:02:18;;;;;;;3.33;2.05;;;;;;;;;;5080923;28;20021;-86
2022/05/15 07:04:44;;;;;;;3.10;2.20;;;;;;;;;;5063178;28;20016;-86
2022/05/15 07:07:09;;;;;;;4.15;1.83;;;;;;;;;;5097271;28;20037;-86
2022/05/15 07:09:35;;;;;;;5.28;2.10;;;;;;;;;;5098370;28;20020;-85
2022/05/15 07:12:02;;;;;;;4.03;1.98;;;;;;;;;;5095823;28;20032;-87
2022/05/15 07:14:28;;;;;;;4.85;1.98;;;;;;;;;;5089263;28;20028;-87
2022/05/15 07:16:54;;;;;;;5.63;1.70;;;;;;;;;;5097479;28;20024;-87
2022/05/15 07:19:19;;;;;;;5.45;1.90;;;;;;;;;;5098680;28;20024;-87
2022/05/15 07:21:45;;;;;;;3.58;1.80;;;;;;;;;;5094913;28;20024;-88
2022/05/15 07:24:10;;;;;;;3.38;1.70;;;;;;;;;;5074265;28;20470;-87
2022/05/15 07:26:39;;;;;;;3.35;1.63;;;;;;;;;;5078310;28;20099;-87
2022/05/15 07:29:05;;;;;;;5.05;2.35;;;;;;;;;;5078871;28;20477;-87
2022/05/15 07:31:30;;;;;;;2.50;1.40;;;;;;;;;;5079116;28;20032;-88
2022/05/15 07:33:56;;;;;;;5.10;1.80;;;;;;;;;;5058703;28;20024;-87
2022/05/15 07:36:21;;;;;;;5.25;2.00;;;;;;;;;;5083937;28;20514;-87
2022/05/15 07:38:47;;;;;;;5.07;2.17;;;;;;;;;;5081551;28;20095;-88
2022/05/15 07:41:14;;;;;;;2.40;1.50;;;;;;;;;;5082064;28;20029;-88
2022/05/15 07:43:40;;;;;;;4.82;1.75;;;;;;;;;;5085928;28;20020;-87
2022/05/15 07:46:05;;;;;;;3.90;2.28;;;;;;;;;;5085101;28;20050;-87
2022/05/15 07:48:31;;;;;;;3.42;1.60;;;;;;;;;;5083188;28;20126;-86
2022/05/15 07:50:57;;;;;;;4.50;1.90;;;;;;;;;;5061943;28;20031;-87
2022/05/15 07:53:22;;;;;;;3.65;1.73;;;;;;;;;;5071237;28;20069;-87
2022/05/15 07:55:48;;;;;;;4.60;1.90;;;;;;;;;;5075921;28;20028;-88
2022/05/15 07:58:13;;;;;;;1.77;1.50;;;;;;;;;;5075085;28;20029;-87
2022/05/15 08:00:39;;;;;;;4.38;1.90;;;;;;;;;;5075485;28;20462;-86
2022/05/15 08:03:08;;;;;;;8.50;1.80;;;;;;;;;;5057988;28;20119;-88
2022/05/15 08:08:18;;;;;;;4.88;2.00;;;;;;;;;;5075834;28;20031;-87
2022/05/15 08:10:44;;;;;;;4.38;1.52;;;;;;;;;;5059510;28;20016;-88
2022/05/15 08:13:13;;;;;;;3.47;1.70;;;;;;;;;;5081019;28;20020;-86
2022/05/15 08:15:40;;;;;;;6.70;1.65;;;;;;;;;;5058947;28;20017;-88
2022/05/15 08:23:40;;;;;;;3.42;1.80;;;;;;;;;;5087527;28;20128;-87
2022/05/15 08:26:06;;;;;;;4.43;1.42;;;;;;;;;;5085021;28;20086;-87
2022/05/15 08:28:35;;;;;;;3.28;1.50;;;;;;;;;;5079485;28;20024;-87
2022/05/15 08:31:01;;;;;;;2.40;1.40;;;;;;;;;;5061940;28;20464;-88
2022/05/15 08:33:27;;;;;;;6.13;1.63;;;;;;;;;;5081870;28;20032;-87
2022/05/15 08:35:53;;;;;;;3.35;1.88;;;;;;;;;;5091635;28;20031;-87
2022/05/15 08:38:19;;;;;;;5.03;1.60;;;;;;;;;;5080752;28;20025;-87
2022/05/15 08:40:47;;;;;;;4.78;2.00;;;;;;;;;;5089605;28;20055;-87
2022/05/15 08:43:18;;;;;;;3.22;1.60;;;;;;;;;;5088625;28;20092;-88
2022/05/15 08:45:56;;;;;;;5.82;1.52;;;;;;;;;;5100160;28;20016;-86
2022/05/15 08:48:22;;;;;;;3.97;1.60;;;;;;;;;;5081302;28;20031;-86
2022/05/15 08:50:52;;;;;;;7.25;1.88;;;;;;;;;;5099578;28;20039;-86
2022/05/15 08:53:29;;;;;;;11.38;1.80;;;;;;;;;;5062891;28;20028;-86
2022/05/15 08:55:58;;;;;;;3.38;1.58;;;;;;;;;;5062260;28;20040;-87
2022/05/15 08:58:37;;;;;;;3.03;1.60;;;;;;;;;;5080387;28;20078;-87
2022/05/15 09:01:08;;;;;;;4.00;1.70;;;;;;;;;;5081105;28;20028;-84
2022/05/15 09:03:40;;;;;;;2.97;1.30;;;;;;;;;;5060670;28;20024;-86
2022/05/15 09:06:19;;;;;;;3.50;1.73;;;;;;;;;;5085023;28;20443;-87
2022/05/15 09:09:16;;;;;;;5.90;1.60;;;;;;;;;;5064915;28;20473;-88
2022/05/15 09:11:56;;;;;;;4.50;1.55;;;;;;;;;;5066881;28;20016;-84
2022/05/15 09:14:36;;;;;;;3.85;1.70;;;;;;;;;;5099026;28;20027;-85
2022/05/15 09:17:40;;;;;;;3.10;1.70;;;;;;;;;;5080727;28;20020;-85
2022/05/15 09:20:13;;;;;;;3.15;1.73;;;;;;;;;;5069371;28;20048;-86
2022/05/15 09:22:43;;;;;;;4.20;1.50;;;;;;;;;;5093657;28;20028;-84
2022/05/15 09:25:17;;;;;;;3.67;1.40;;;;;;;;;;5078850;28;20029;-88
2022/05/15 09:28:05;;;;;;;2.83;1.55;;;;;;;;;;5060156;28;20617;-87
2022/05/15 09:30:38;;;;;;;3.28;1.52;;;;;;;;;;5065867;28;20032;-85
2022/05/15 09:33:04;;;;;;;3.47;1.80;;;;;;;;;;5078420;28;20030;-87
2022/05/15 09:35:38;;;;;;;3.45;1.48;;;;;;;;;;5079978;28;20028;-86
2022/05/15 09:43:50;;;;;;;6.60;2.10;;;;;;;;;;5078002;28;20104;-86
2022/05/15 09:46:18;;;;;;;5.32;1.80;;;;;;;;;;5040135;28;20053;-86
2022/05/15 09:48:49;;;;;;;5.00;1.58;;;;;;;;;;5078028;28;20024;-85
2022/05/15 09:51:41;;;;;;;2.83;1.50;;;;;;;;;;5078440;28;20070;-87
2022/05/15 09:54:07;;;;;;;1.52;1.23;;;;;;;;;;5060059;28;20537;-87
2022/05/15 09:56:35;;;;;;;5.63;1.88;;;;;;;;;;5068016;28;20021;-86
2022/05/15 09:59:10;;;;;;;2.63;1.40;;;;;;;;;;5077808;28;20032;-86
2022/05/15 10:01:40;;;;;;;4.28;1.42;;;;;;;;;;5079912;28;20028;-88
2022/05/15 10:04:25;;;;;;;5.53;2.08;;;;;;;;;;5071604;28;20027;-85
2022/05/15 10:06:56;;;;;;;2.47;1.38;;;;;;;;;;5071039;28;20083;-87
2022/05/15 10:09:35;;;;;;;4.20;1.50;;;;;;;;;;5077234;28;20040;-85
2022/05/15 10:12:24;;;;;;;4.75;1.45;;;;;;;;;;5059874;28;20025;-85
2022/05/15 10:14:53;;;;;;;2.65;1.45;;;;;;;;;;5058703;28;20055;-86
2022/05/15 10:17:21;;;;;;;1.67;1.30;;;;;;;;;;5076537;28;20120;-86
2022/05/15 10:19:52;;;;;;;2.45;1.70;;;;;;;;;;5079078;28;20039;-86
2022/05/15 10:22:39;;;;;;;2.45;1.55;;;;;;;;;;5076962;28;20064;-86
2022/05/15 10:25:35;;;;;;;3.53;1.50;;;;;;;;;;5092461;28;20059;-86
2022/05/15 10:28:13;;;;;;;4.75;1.55;;;;;;;;;;5070052;28;20021;-85
2022/05/15 10:31:18;;;;;;;3.10;1.50;;;;;;;;;;5076180;28;20478;-85
2022/05/15 10:33:50;;;;;;;3.13;1.58;;;;;;;;;;5080394;28;20032;-85
2022/05/15 10:36:31;;;;;;;5.20;1.65;;;;;;;;;;5090554;28;20088;-84
2022/05/15 10:39:04;;;;;;;6.13;1.67;;;;;;;;;;5098099;28;20016;-87
2022/05/15 10:41:47;;;;;;;3.20;1.50;;;;;;;;;;5069859;28;20070;-86
2022/05/15 10:44:39;;;;;;;3.42;1.50;;;;;;;;;;5079244;28;20377;-87
2022/05/15 10:47:12;;;;;;;3.08;1.48;;;;;;;;;;5075068;28;20068;-84
2022/05/15 10:50:14;;;;;;;5.97;1.45;;;;;;;;;;5066542;28;20085;-87
2022/05/15 10:59:23;;;;;;;3.08;1.48;;;;;;;;;;5076605;28;20421;-84
2022/05/15 11:02:11;;;;;;;1.30;1.10;;;;;;;;;;5057360;28;20478;-85
2022/05/15 11:04:39;;;;;;;2.05;1.30;;;;;;;;;;5057398;28;20036;-85
2022/05/15 11:07:13;;;;;;;4.63;1.70;;;;;;;;;;5074646;28;20076;-84
2022/05/15 11:09:57;;;;;;;4.35;1.42;;;;;;;;;;5075927;28;20361;-85
2022/05/15 11:12:30;;;;;;;3.58;1.63;;;;;;;;;;5074449;28;20394;-86
2022/05/15 11:15:25;;;;;;;3.13;1.50;;;;;;;;;;5064098;28;20367;-85
2022/05/15 11:18:07;;;;;;;3.88;1.73;;;;;;;;;;5078340;28;20048;-85
2022/05/15 11:20:39;;;;;;;3.70;1.45;;;;;;;;;;5077378;28;20481;-84
2022/05/15 11:23:16;;;;;;;2.55;1.48;;;;;;;;;;5078747;28;20112;-85
2022/05/15 11:25:57;;;;;;;3.25;1.40;;;;;;;;;;5078631;28;20390;-87
2022/05/15 11:28:36;;;;;;;3.30;1.38;;;;;;;;;;5076845;28;20045;-85
2022/05/15 11:31:09;;;;;;;2.92;1.27;;;;;;;;;;5070995;28;20029;-84
2022/05/15 11:33:43;;;;;;;3.83;1.60;;;;;;;;;;5077727;28;20032;-84
2022/05/15 11:36:21;;;;;;;9.43;2.03;;;;;;;;;;5083975;28;20024;-87
2022/05/15 11:38:52;;;;;;;2.58;1.60;;;;;;;;;;5096894;28;20022;-86
2022/05/15 11:41:35;;;;;;;4.35;1.70;;;;;;;;;;5093445;28;20119;-85
2022/05/15 11:44:23;;;;;;;4.38;1.70;;;;;;;;;;5084073;28;20024;-85
2022/05/15 11:46:58;;;;;;;5.40;1.70;;;;;;;;;;5062980;28;20142;-85
2022/05/15 11:49:29;;;;;;;4.50;1.73;;;;;;;;;;5076805;28;20019;-85
2022/05/15 11:52:04;;;;;;;4.15;1.70;;;;;;;;;;5088418;28;20028;-85
2022/05/15 11:54:33;;;;;;;4.95;1.60;;;;;;;;;;5096409;28;20028;-85
2022/05/15 11:57:00;;;;;;;4.65;1.75;;;;;;;;;;5062030;28;20094;-83
2022/05/15 11:59:28;;;;;;;4.45;1.40;;;;;;;;;;5085847;28;20106;-84
2022/05/15 12:02:38;;;;;;;3.97;1.60;;;;;;;;;;5094408;28;20024;-85
2022/05/15 12:05:20;;;;;;;2.90;1.50;;;;;;;;;;5062420;28;20119;-85
2022/05/15 12:08:07;;;;;;;2.63;1.50;;;;;;;;;;5071659;28;20027;-84
2022/05/15 12:10:32;;;;;;;4.30;1.40;;;;;;;;;;5088913;28;20020;-85
2022/05/15 12:13:04;;;;;;;1.73;1.50;;;;;;;;;;5065858;28;20029;-85
2022/05/15 12:15:41;;;;;;;5.13;1.60;;;;;;;;;;5079860;28;20028;-84
2022/05/15 12:18:36;;;;;;;2.35;1.40;;;;;;;;;;5071653;28;20693;-84
2022/05/15 12:21:05;;;;;;;4.35;1.58;;;;;;;;;;5089466;28;20048;-85
2022/05/15 12:26:48;;;;;;;3.72;1.52;;;;;;;;;;5077676;28;20019;-87
2022/05/15 12:29:23;;;;;;;3.70;1.60;;;;;;;;;;5064322;28;20025;-86
2022/05/15 12:31:55;;;;;;;3.67;1.33;;;;;;;;;;5051372;28;20036;-87
2022/05/15 12:34:34;;;;;;;4.03;1.77;;;;;;;;;;5073980;28;20105;-86
2022/05/15 12:37:07;;;;;;;5.40;1.58;;;;;;;;;;5063061;28;20073;-86
2022/05/15 12:39:40;;;;;;;3.67;1.55;;;;;;;;;;5060832;28;20028;-85
2022/05/15 12:42:19;;;;;;;4.18;1.42;;;;;;;;;;5061313;28;20571;-86
2022/05/15 12:44:44;;;;;;;2.83;1.60;;;;;;;;;;5073683;28;20043;-85
2022/05/15 12:47:21;;;;;;;3.33;1.52;;;;;;;;;;5092094;28;20021;-85
2022/05/15 12:49:47;;;;;;;2.60;1.52;;;;;;;;;;5067662;28;20031;-87
2022/05/15 12:52:16;;;;;;;5.80;1.85;;;;;;;;;;5074022;28;20020;-87
2022/05/15 12:54:43;;;;;;;5.28;1.73;;;;;;;;;;5062181;28;20020;-87
2022/05/15 12:57:15;;;;;;;3.70;1.35;;;;;;;;;;5068739;28;20024;-85
2022/05/15 12:59:45;;;;;;;5.03;1.60;;;;;;;;;;5081007;28;20052;-86
2022/05/15 13:02:21;;;;;;;2.70;1.50;;;;;;;;;;5066363;28;20027;-87
2022/05/15 13:04:55;;;;;;;2.92;2.00;;;;;;;;;;5080071;28;20024;-85
2022/05/15 13:07:26;;;;;;;3.10;1.52;;;;;;;;;;5061623;28;20056;-86
2022/05/15 13:10:04;;;;;;;4.00;1.40;;;;;;;;;;5079181;28;20020;-87
2022/05/15 13:12:30;;;;;;;3.50;1.65;;;;;;;;;;5078468;28;20028;-87
2022/05/15 13:14:57;;;;;;;3.80;1.30;;;;;;;;;;5061611;28;20035;-87
2022/05/15 13:17:32;;;;;;;2.38;1.52;;;;;;;;;;5087553;28;20052;-86
2022/05/15 13:19:58;;;;;;;5.75;1.65;;;;;;;;;;5079544;28;20120;-87
2022/05/15 13:22:27;;;;;;;3.88;1.42;;;;;;;;;;5080650;28;20031;-86
2022/05/15 13:25:19;;;;;;;2.60;1.05;;;;;;;;;;5081635;28;20073;-86
2022/05/15 13:27:46;;;;;;;2.95;1.30;;;;;;;;;;5065149;28;20509;-87
2022/05/15 13:30:15;;;;;;;2.90;1.40;;;;;;;;;;5079534;28;20028;-85
2022/05/15 13:32:42;;;;;;;1.75;1.20;;;;;;;;;;5079213;28;20032;-86
2022/05/15 13:35:11;;;;;;;4.70;1.85;;;;;;;;;;5065314;28;20111;-85
2022/05/15 13:37:41;;;;;;;1.70;1.30;;;;;;;;;;5086300;28;20024;-86
2022/05/15 13:45:55;;;;;;;8.50;1.85;;;;;;;;;;5090666;28;20039;-87
2022/05/15 13:48:21;;;;;;;1.67;1.40;;;;;;;;;;5071324;28;20056;-86
2022/05/15 13:50:50;;;;;;;4.28;1.52;;;;;;;;;;5099236;28;20024;-85
2022/05/15 13:53:16;;;;;;;3.28;1.30;;;;;;;;;;5049501;28;20063;-85
2022/05/15 13:55:43;;;;;;;5.05;1.40;;;;;;;;;;5069323;28;20036;-86
2022/05/15 13:58:08;;;;;;;2.78;1.55;;;;;;;;;;5081141;28;20032;-87
2022/05/15 14:00:35;;;;;;;3.88;1.30;;;;;;;;;;5055522;28;20078;-87
2022/05/15 14:03:01;;;;;;;3.42;1.60;;;;;;;;;;5073603;28;20024;-87
2022/05/15 14:05:30;;;;;;;5.88;1.60;;;;;;;;;;5096482;28;20024;-87
2022/05/15 14:08:18;;;;;;;2.33;1.30;;;;;;;;;;5080460;28;20069;-87
2022/05/15 14:10:46;;;;;;;4.68;1.73;;;;;;;;;;5068777;28;20031;-87
2022/05/15 14:13:14;;;;;;;5.05;1.50;;;;;;;;;;5077604;28;20036;-88
2022/05/15 14:15:51;;;;;;;5.35;1.33;;;;;;;;;;5078349;28;20159;-88
2022/05/15 14:18:20;;;;;;;6.07;1.67;;;;;;;;;;5055464;28;20521;-88
2022/05/15 14:20:52;;;;;;;4.38;1.70;;;;;;;;;;5083069;28;20047;-89
2022/05/15 14:23:20;;;;;;;3.33;1.67;;;;;;;;;;5063294;28;20059;-87
2022/05/15 14:25:46;;;;;;;3.95;1.63;;;;;;;;;;5077191;28;20086;-88
2022/05/15 14:28:13;;;;;;;3.13;1.50;;;;;;;;;;5077116;28;20032;-86
2022/05/15 14:30:42;;;;;;;2.60;1.60;;;;;;;;;;5060424;28;20028;-86
2022/05/15 14:33:08;;;;;;;3.20;1.67;;;;;;;;;;5066381;28;20051;-86
2022/05/15 14:35:44;;;;;;;4.32;1.60;;;;;;;;;;5087874;28;20417;-86
2022/05/15 14:38:10;;;;;;;8.25;2.08;;;;;;;;;;5097202;28;20028;-86
2022/05/15 14:40:35;;;;;;;3.95;1.50;;;;;;;;;;5075901;28;20020;-88
2022/05/15 14:43:01;;;;;;;4.35;1.65;;;;;;;;;;5067282;28;20036;-86
2022/05/15 14:45:28;;;;;;;2.95;1.40;;;;;;;;;;5081073;28;20031;-87
2022/05/15 14:47:59;;;;;;;7.13;1.65;;;;;;;;;;5075569;28;20067;-88
2022/05/15 14:50:25;;;;;;;3.05;1.60;;;;;;;;;;5077210;28;20405;-85
2022/05/15 14:52:51;;;;;;;7.45;2.05;;;;;;;;;;5076559;28;20485;-87
2022/05/15 14:58:02;;;;;;;3.88;1.20;;;;;;;;;;5062153;28;20036;-87
2022/05/15 15:00:28;;;;;;;4.05;1.52;;;;;;;;;;5058366;28;20076;-87
2022/05/15 15:02:53;;;;;;;3.95;1.50;;;;;;;;;;5056874;28;20557;-87
2022/05/15 15:05:19;;;;;;;3.25;1.40;;;;;;;;;;5056697;28;20055;-85
2022/05/15 15:07:45;;;;;;;2.28;1.42;;;;;;;;;;5073218;28;20020;-86
2022/05/15 15:10:10;;;;;;;4.13;1.67;;;;;;;;;;5070507;28;20392;-86
2022/05/15 15:12:36;;;;;;;3.50;1.48;;;;;;;;;;5088361;28;20042;-86
2022/05/15 15:15:03;;;;;;;2.30;1.48;;;;;;;;;;5065311;28;20024;-87
2022/05/15 15:17:29;;;;;;;3.75;1.50;;;;;;;;;;5069562;28;20040;-88
2022/05/15 15:19:54;;;;;;;2.75;1.65;;;;;;;;;;5068544;28;20028;-90
2022/05/15 15:22:21;;;;;;;5.28;1.63;;;;;;;;;;5064791;28;20470;-86
2022/05/15 15:24:47;;;;;;;4.07;1.45;;;;;;;;;;5077687;28;20112;-87
2022/05/15 15:27:12;;;;;;;4.00;1.50;;;;;;;;;;5066770;28;20029;-86
2022/05/15 15:29:38;;;;;;;1.58;1.05;;;;;;;;;;5059839;28;20410;-87
2022/05/15 15:32:03;;;;;;;2.80;1.50;;;;;;;;;;5076575;28;20032;-86
2022/05/15 15:34:29;;;;;;;1.73;1.30;;;;;;;;;;5075484;28;20032;-86
2022/05/15 15:39:38;;;;;;;3.78;1.48;;;;;;;;;;5078318;28;20054;-86